sensor_id;sensor_type;location;lat;lon;timestamp;P1;durP1;ratioP1;P2;durP2;ratioP2
22160;SDS011;49035;48.812;11.762;2023-04-24T00:02:09;6.07;;;4.38;;
22160;SDS011;49035;48.812;11.762;2023-04-24T00:04:36;5.50;;;4.22;;
22160;SDS011;49035;48.812;11.762;2023-04-24T00:07:05;5.70;;;4.00;;
22160;SDS011;49035;48.812;11.762;2023-04-24T00:09:31;5.95;;;4.43;;
22160;SDS011;49035;48.812;11.762;2023-04-24T00:11:57;9.35;;;4.68;;
22160;SDS011;49035;48.812;11.762;2023-04-24T00:14:23;7.28;;;3.88;;
22160;SDS011;49035;48.812;11.762;2023-04-24T00:16:48;8.63;;;4.43;;
22160;SDS011;49035;48.812;11.762;2023-04-24T00:19:14;8.07;;;3.97;;
22160;SDS011;49035;48.812;11.762;2023-04-24T00:21:40;7.97;;;4.50;;
22160;SDS011;49035;48.812;11.762;2023-04-24T00:24:06;6.85;;;4.38;;
22160;SDS011;49035;48.812;11.762;2023-04-24T00:26:33;6.13;;;3.97;;
22160;SDS011;49035;48.812;11.762;2023-04-24T00:28:59;6.63;;;4.28;;
22160;SDS011;49035;48.812;11.762;2023-04-24T00:31:25;5.82;;;4.30;;
22160;SDS011;49035;48.812;11.762;2023-04-24T00:33:50;7.22;;;4.20;;
22160;SDS011;49035;48.812;11.762;2023-04-24T00:36:16;6.18;;;4.60;;
22160;SDS011;49035;48.812;11.762;2023-04-24T00:38:44;6.75;;;4.05;;
22160;SDS011;49035;48.812;11.762;2023-04-24T00:41:09;7.53;;;3.90;;
22160;SDS011;49035;48.812;11.762;2023-04-24T00:43:35;5.85;;;4.00;;
22160;SDS011;49035;48.812;11.762;2023-04-24T00:46:00;6.38;;;3.78;;
22160;SDS011;49035;48.812;11.762;2023-04-24T00:48:26;4.70;;;3.55;;
22160;SDS011;49035;48.812;11.762;2023-04-24T00:50:53;6.30;;;4.28;;
22160;SDS011;49035;48.812;11.762;2023-04-24T00:53:18;5.45;;;3.80;;
22160;SDS011;49035;48.812;11.762;2023-04-24T00:55:44;5.43;;;3.53;;
22160;SDS011;49035;48.812;11.762;2023-04-24T00:58:11;8.32;;;3.58;;
22160;SDS011;49035;48.812;11.762;2023-04-24T01:00:37;9.48;;;3.88;;
22160;SDS011;49035;48.812;11.762;2023-04-24T01:03:04;4.50;;;3.40;;
22160;SDS011;49035;48.812;11.762;2023-04-24T01:05:30;6.43;;;3.47;;
22160;SDS011;49035;48.812;11.762;2023-04-24T01:07:57;7.70;;;3.60;;
22160;SDS011;49035;48.812;11.762;2023-04-24T01:10:24;5.22;;;3.20;;
22160;SDS011;49035;48.812;11.762;2023-04-24T01:12:52;4.80;;;3.40;;
22160;SDS011;49035;48.812;11.762;2023-04-24T01:15:18;6.20;;;4.10;;
22160;SDS011;49035;48.812;11.762;2023-04-24T01:17:44;5.25;;;3.45;;
22160;SDS011;49035;48.812;11.762;2023-04-24T01:20:10;5.90;;;3.58;;
22160;SDS011;49035;48.812;11.762;2023-04-24T01:22:35;5.50;;;3.70;;
22160;SDS011;49035;48.812;11.762;2023-04-24T01:25:01;5.20;;;3.03;;
22160;SDS011;49035;48.812;11.762;2023-04-24T01:27:27;5.53;;;3.72;;
22160;SDS011;49035;48.812;11.762;2023-04-24T01:29:53;4.80;;;3.83;;
22160;SDS011;49035;48.812;11.762;2023-04-24T01:32:19;6.28;;;3.45;;
22160;SDS011;49035;48.812;11.762;2023-04-24T01:34:45;4.25;;;3.30;;
22160;SDS011;49035;48.812;11.762;2023-04-24T01:37:11;5.15;;;3.67;;
22160;SDS011;49035;48.812;11.762;2023-04-24T01:39:37;5.68;;;4.22;;
22160;SDS011;49035;48.812;11.762;2023-04-24T01:42:04;5.65;;;3.78;;
22160;SDS011;49035;48.812;11.762;2023-04-24T01:44:30;4.95;;;3.38;;
22160;SDS011;49035;48.812;11.762;2023-04-24T01:46:56;6.03;;;3.60;;
22160;SDS011;49035;48.812;11.762;2023-04-24T01:49:22;4.85;;;3.47;;
22160;SDS011;49035;48.812;11.762;2023-04-24T01:51:48;6.37;;;4.13;;
22160;SDS011;49035;48.812;11.762;2023-04-24T01:54:14;4.50;;;3.78;;
22160;SDS011;49035;48.812;11.762;2023-04-24T01:56:42;6.88;;;3.50;;
22160;SDS011;49035;48.812;11.762;2023-04-24T01:59:11;5.68;;;3.40;;
22160;SDS011;49035;48.812;11.762;2023-04-24T02:01:38;5.65;;;3.85;;
22160;SDS011;49035;48.812;11.762;2023-04-24T02:04:04;4.97;;;3.17;;
22160;SDS011;49035;48.812;11.762;2023-04-24T02:06:30;5.05;;;3.53;;
22160;SDS011;49035;48.812;11.762;2023-04-24T02:08:59;4.82;;;3.45;;
22160;SDS011;49035;48.812;11.762;2023-04-24T02:11:25;4.23;;;3.00;;
22160;SDS011;49035;48.812;11.762;2023-04-24T02:13:51;4.53;;;3.30;;
22160;SDS011;49035;48.812;11.762;2023-04-24T02:16:17;3.90;;;3.23;;
22160;SDS011;49035;48.812;11.762;2023-04-24T02:18:43;5.70;;;3.42;;
22160;SDS011;49035;48.812;11.762;2023-04-24T02:21:09;7.40;;;3.38;;
22160;SDS011;49035;48.812;11.762;2023-04-24T02:23:35;4.38;;;3.40;;
22160;SDS011;49035;48.812;11.762;2023-04-24T02:26:01;4.95;;;2.88;;
22160;SDS011;49035;48.812;11.762;2023-04-24T02:28:27;4.97;;;3.10;;
22160;SDS011;49035;48.812;11.762;2023-04-24T02:30:52;5.07;;;3.28;;
22160;SDS011;49035;48.812;11.762;2023-04-24T02:33:18;3.75;;;3.35;;
22160;SDS011;49035;48.812;11.762;2023-04-24T02:35:43;4.60;;;3.13;;
22160;SDS011;49035;48.812;11.762;2023-04-24T02:38:09;5.15;;;2.95;;
22160;SDS011;49035;48.812;11.762;2023-04-24T02:40:35;5.07;;;3.63;;
22160;SDS011;49035;48.812;11.762;2023-04-24T02:43:00;13.30;;;7.45;;
22160;SDS011;49035;48.812;11.762;2023-04-24T02:45:26;6.07;;;3.63;;
22160;SDS011;49035;48.812;11.762;2023-04-24T02:47:51;3.67;;;2.75;;
22160;SDS011;49035;48.812;11.762;2023-04-24T02:50:17;2.97;;;2.67;;
22160;SDS011;49035;48.812;11.762;2023-04-24T02:52:42;6.07;;;3.15;;
22160;SDS011;49035;48.812;11.762;2023-04-24T02:55:08;6.60;;;3.57;;
22160;SDS011;49035;48.812;11.762;2023-04-24T02:57:34;3.88;;;2.92;;
22160;SDS011;49035;48.812;11.762;2023-04-24T02:59:59;4.57;;;2.70;;
22160;SDS011;49035;48.812;11.762;2023-04-24T03:02:25;4.35;;;3.20;;
22160;SDS011;49035;48.812;11.762;2023-04-24T03:04:50;3.00;;;2.70;;
22160;SDS011;49035;48.812;11.762;2023-04-24T03:07:16;3.80;;;2.97;;
22160;SDS011;49035;48.812;11.762;2023-04-24T03:09:42;4.73;;;2.90;;
22160;SDS011;49035;48.812;11.762;2023-04-24T03:12:07;3.30;;;2.60;;
22160;SDS011;49035;48.812;11.762;2023-04-24T03:14:33;4.07;;;2.80;;
22160;SDS011;49035;48.812;11.762;2023-04-24T03:16:59;4.93;;;3.08;;
22160;SDS011;49035;48.812;11.762;2023-04-24T03:19:25;4.90;;;2.80;;
22160;SDS011;49035;48.812;11.762;2023-04-24T03:21:51;6.50;;;2.60;;
22160;SDS011;49035;48.812;11.762;2023-04-24T03:24:16;4.50;;;2.83;;
22160;SDS011;49035;48.812;11.762;2023-04-24T03:26:42;5.70;;;3.10;;
22160;SDS011;49035;48.812;11.762;2023-04-24T03:29:07;6.67;;;2.63;;
22160;SDS011;49035;48.812;11.762;2023-04-24T03:31:33;5.85;;;2.55;;
22160;SDS011;49035;48.812;11.762;2023-04-24T03:33:58;4.90;;;2.60;;
22160;SDS011;49035;48.812;11.762;2023-04-24T03:36:24;7.22;;;2.22;;
22160;SDS011;49035;48.812;11.762;2023-04-24T03:38:51;4.63;;;2.35;;
22160;SDS011;49035;48.812;11.762;2023-04-24T03:41:16;3.23;;;2.13;;
22160;SDS011;49035;48.812;11.762;2023-04-24T03:43:42;2.50;;;2.30;;
22160;SDS011;49035;48.812;11.762;2023-04-24T03:46:07;2.97;;;2.30;;
22160;SDS011;49035;48.812;11.762;2023-04-24T03:48:34;3.37;;;2.53;;
22160;SDS011;49035;48.812;11.762;2023-04-24T03:51:00;2.57;;;2.37;;
22160;SDS011;49035;48.812;11.762;2023-04-24T03:53:25;3.47;;;2.53;;
22160;SDS011;49035;48.812;11.762;2023-04-24T03:55:52;6.18;;;2.47;;
22160;SDS011;49035;48.812;11.762;2023-04-24T03:58:18;4.00;;;2.57;;
22160;SDS011;49035;48.812;11.762;2023-04-24T04:00:44;2.47;;;2.03;;
22160;SDS011;49035;48.812;11.762;2023-04-24T04:03:11;2.77;;;2.20;;
22160;SDS011;49035;48.812;11.762;2023-04-24T04:05:38;3.28;;;1.90;;
22160;SDS011;49035;48.812;11.762;2023-04-24T04:08:04;3.07;;;2.40;;
22160;SDS011;49035;48.812;11.762;2023-04-24T04:10:29;5.13;;;2.30;;
22160;SDS011;49035;48.812;11.762;2023-04-24T04:12:55;4.45;;;2.20;;
22160;SDS011;49035;48.812;11.762;2023-04-24T04:15:20;4.30;;;2.17;;
22160;SDS011;49035;48.812;11.762;2023-04-24T04:17:46;2.80;;;2.30;;
22160;SDS011;49035;48.812;11.762;2023-04-24T04:20:12;3.25;;;2.20;;
22160;SDS011;49035;48.812;11.762;2023-04-24T04:22:38;3.57;;;2.10;;
22160;SDS011;49035;48.812;11.762;2023-04-24T04:25:04;2.40;;;2.00;;
22160;SDS011;49035;48.812;11.762;2023-04-24T04:27:30;3.40;;;2.10;;
22160;SDS011;49035;48.812;11.762;2023-04-24T04:30:00;2.65;;;2.13;;
22160;SDS011;49035;48.812;11.762;2023-04-24T04:32:29;5.55;;;2.42;;
22160;SDS011;49035;48.812;11.762;2023-04-24T04:34:56;4.10;;;2.60;;
22160;SDS011;49035;48.812;11.762;2023-04-24T04:37:21;3.07;;;2.03;;
22160;SDS011;49035;48.812;11.762;2023-04-24T04:39:47;4.13;;;1.90;;
22160;SDS011;49035;48.812;11.762;2023-04-24T04:42:13;2.58;;;1.95;;
22160;SDS011;49035;48.812;11.762;2023-04-24T04:44:38;3.75;;;2.20;;
22160;SDS011;49035;48.812;11.762;2023-04-24T04:47:04;3.33;;;2.20;;
22160;SDS011;49035;48.812;11.762;2023-04-24T04:49:30;2.58;;;2.00;;
22160;SDS011;49035;48.812;11.762;2023-04-24T04:51:57;2.47;;;1.87;;
22160;SDS011;49035;48.812;11.762;2023-04-24T04:54:22;3.30;;;1.90;;
22160;SDS011;49035;48.812;11.762;2023-04-24T04:56:51;3.20;;;1.77;;
22160;SDS011;49035;48.812;11.762;2023-04-24T04:59:17;2.27;;;2.00;;
22160;SDS011;49035;48.812;11.762;2023-04-24T05:01:42;2.93;;;2.00;;
22160;SDS011;49035;48.812;11.762;2023-04-24T05:04:08;2.95;;;2.10;;
22160;SDS011;49035;48.812;11.762;2023-04-24T05:06:33;2.40;;;2.17;;
22160;SDS011;49035;48.812;11.762;2023-04-24T05:08:59;3.15;;;2.00;;
22160;SDS011;49035;48.812;11.762;2023-04-24T05:11:24;2.50;;;2.10;;
22160;SDS011;49035;48.812;11.762;2023-04-24T05:13:50;2.33;;;1.97;;
22160;SDS011;49035;48.812;11.762;2023-04-24T05:16:15;3.10;;;2.08;;
22160;SDS011;49035;48.812;11.762;2023-04-24T05:18:41;4.40;;;2.22;;
22160;SDS011;49035;48.812;11.762;2023-04-24T05:21:07;5.28;;;2.38;;
22160;SDS011;49035;48.812;11.762;2023-04-24T05:23:32;3.47;;;2.13;;
22160;SDS011;49035;48.812;11.762;2023-04-24T05:25:58;3.40;;;2.00;;
22160;SDS011;49035;48.812;11.762;2023-04-24T05:28:23;1.85;;;1.67;;
22160;SDS011;49035;48.812;11.762;2023-04-24T05:30:53;3.33;;;2.50;;
22160;SDS011;49035;48.812;11.762;2023-04-24T05:33:20;3.58;;;1.88;;
22160;SDS011;49035;48.812;11.762;2023-04-24T05:35:47;3.22;;;2.17;;
22160;SDS011;49035;48.812;11.762;2023-04-24T05:38:13;3.25;;;1.85;;
22160;SDS011;49035;48.812;11.762;2023-04-24T05:40:42;1.88;;;1.75;;
22160;SDS011;49035;48.812;11.762;2023-04-24T05:43:08;4.65;;;1.88;;
22160;SDS011;49035;48.812;11.762;2023-04-24T05:45:33;2.72;;;1.85;;
22160;SDS011;49035;48.812;11.762;2023-04-24T05:48:01;2.35;;;1.70;;
22160;SDS011;49035;48.812;11.762;2023-04-24T05:50:27;2.53;;;1.75;;
22160;SDS011;49035;48.812;11.762;2023-04-24T05:52:52;2.38;;;1.80;;
22160;SDS011;49035;48.812;11.762;2023-04-24T05:55:18;3.80;;;1.92;;
22160;SDS011;49035;48.812;11.762;2023-04-24T05:57:44;3.92;;;2.28;;
22160;SDS011;49035;48.812;11.762;2023-04-24T06:00:09;2.42;;;1.80;;
22160;SDS011;49035;48.812;11.762;2023-04-24T06:02:37;2.92;;;1.73;;
22160;SDS011;49035;48.812;11.762;2023-04-24T06:05:03;2.13;;;1.98;;
22160;SDS011;49035;48.812;11.762;2023-04-24T06:07:29;2.05;;;1.83;;
22160;SDS011;49035;48.812;11.762;2023-04-24T06:09:55;2.50;;;1.65;;
22160;SDS011;49035;48.812;11.762;2023-04-24T06:12:21;2.25;;;1.60;;
22160;SDS011;49035;48.812;11.762;2023-04-24T06:14:47;2.72;;;1.40;;
22160;SDS011;49035;48.812;11.762;2023-04-24T06:17:13;2.03;;;1.75;;
22160;SDS011;49035;48.812;11.762;2023-04-24T06:19:39;2.85;;;1.80;;
22160;SDS011;49035;48.812;11.762;2023-04-24T06:22:05;3.10;;;1.63;;
22160;SDS011;49035;48.812;11.762;2023-04-24T06:24:31;1.73;;;1.50;;
22160;SDS011;49035;48.812;11.762;2023-04-24T06:26:57;3.28;;;1.55;;
22160;SDS011;49035;48.812;11.762;2023-04-24T06:29:24;2.45;;;1.55;;
22160;SDS011;49035;48.812;11.762;2023-04-24T06:31:50;2.40;;;1.73;;
22160;SDS011;49035;48.812;11.762;2023-04-24T06:34:15;1.75;;;1.65;;
22160;SDS011;49035;48.812;11.762;2023-04-24T06:36:41;3.15;;;1.60;;
22160;SDS011;49035;48.812;11.762;2023-04-24T06:39:07;1.77;;;1.40;;
22160;SDS011;49035;48.812;11.762;2023-04-24T06:41:32;1.88;;;1.42;;
22160;SDS011;49035;48.812;11.762;2023-04-24T06:43:58;3.17;;;1.40;;
22160;SDS011;49035;48.812;11.762;2023-04-24T06:46:23;1.88;;;1.42;;
22160;SDS011;49035;48.812;11.762;2023-04-24T06:48:51;2.08;;;1.30;;
22160;SDS011;49035;48.812;11.762;2023-04-24T06:51:17;2.83;;;1.45;;
22160;SDS011;49035;48.812;11.762;2023-04-24T06:53:43;2.85;;;1.45;;
22160;SDS011;49035;48.812;11.762;2023-04-24T06:56:08;1.73;;;1.20;;
22160;SDS011;49035;48.812;11.762;2023-04-24T06:58:37;2.05;;;1.40;;
22160;SDS011;49035;48.812;11.762;2023-04-24T07:01:03;1.85;;;1.50;;
22160;SDS011;49035;48.812;11.762;2023-04-24T07:03:29;2.45;;;1.35;;
22160;SDS011;49035;48.812;11.762;2023-04-24T07:05:54;2.28;;;1.30;;
22160;SDS011;49035;48.812;11.762;2023-04-24T07:08:20;3.28;;;1.40;;
22160;SDS011;49035;48.812;11.762;2023-04-24T07:10:47;2.83;;;1.30;;
22160;SDS011;49035;48.812;11.762;2023-04-24T07:13:13;2.15;;;1.48;;
22160;SDS011;49035;48.812;11.762;2023-04-24T07:15:39;3.40;;;1.20;;
22160;SDS011;49035;48.812;11.762;2023-04-24T07:18:06;1.58;;;1.17;;
22160;SDS011;49035;48.812;11.762;2023-04-24T07:20:31;1.75;;;1.30;;
22160;SDS011;49035;48.812;11.762;2023-04-24T07:22:58;1.55;;;1.23;;
22160;SDS011;49035;48.812;11.762;2023-04-24T07:25:23;2.40;;;1.20;;
22160;SDS011;49035;48.812;11.762;2023-04-24T07:27:49;1.92;;;1.05;;
22160;SDS011;49035;48.812;11.762;2023-04-24T07:30:15;1.77;;;1.35;;
22160;SDS011;49035;48.812;11.762;2023-04-24T07:32:40;1.60;;;1.15;;
22160;SDS011;49035;48.812;11.762;2023-04-24T07:35:06;1.23;;;1.10;;
22160;SDS011;49035;48.812;11.762;2023-04-24T07:37:32;2.47;;;1.30;;
22160;SDS011;49035;48.812;11.762;2023-04-24T07:39:57;1.45;;;1.10;;
22160;SDS011;49035;48.812;11.762;2023-04-24T07:42:23;1.40;;;1.27;;
22160;SDS011;49035;48.812;11.762;2023-04-24T07:44:49;3.83;;;1.33;;
22160;SDS011;49035;48.812;11.762;2023-04-24T07:47:15;2.75;;;0.90;;
22160;SDS011;49035;48.812;11.762;2023-04-24T07:49:41;1.85;;;1.05;;
22160;SDS011;49035;48.812;11.762;2023-04-24T07:52:07;0.82;;;0.82;;
22160;SDS011;49035;48.812;11.762;2023-04-24T07:54:33;0.70;;;0.68;;
22160;SDS011;49035;48.812;11.762;2023-04-24T07:56:58;1.75;;;1.05;;
22160;SDS011;49035;48.812;11.762;2023-04-24T07:59:25;1.08;;;1.08;;
22160;SDS011;49035;48.812;11.762;2023-04-24T08:01:51;1.10;;;1.00;;
22160;SDS011;49035;48.812;11.762;2023-04-24T08:04:16;1.23;;;0.90;;
22160;SDS011;49035;48.812;11.762;2023-04-24T08:06:43;1.23;;;0.90;;
22160;SDS011;49035;48.812;11.762;2023-04-24T08:09:09;2.15;;;0.90;;
22160;SDS011;49035;48.812;11.762;2023-04-24T08:11:34;1.38;;;1.10;;
22160;SDS011;49035;48.812;11.762;2023-04-24T08:14:00;0.88;;;0.88;;
22160;SDS011;49035;48.812;11.762;2023-04-24T08:16:26;1.20;;;1.02;;
22160;SDS011;49035;48.812;11.762;2023-04-24T08:18:52;1.30;;;1.05;;
22160;SDS011;49035;48.812;11.762;2023-04-24T08:21:18;1.63;;;0.98;;
22160;SDS011;49035;48.812;11.762;2023-04-24T08:23:45;3.17;;;1.35;;
22160;SDS011;49035;48.812;11.762;2023-04-24T08:26:11;4.22;;;1.30;;
22160;SDS011;49035;48.812;11.762;2023-04-24T08:28:37;2.90;;;1.27;;
22160;SDS011;49035;48.812;11.762;2023-04-24T08:31:03;6.93;;;1.10;;
22160;SDS011;49035;48.812;11.762;2023-04-24T08:33:29;4.03;;;1.30;;
22160;SDS011;49035;48.812;11.762;2023-04-24T08:36:00;1.33;;;1.23;;
22160;SDS011;49035;48.812;11.762;2023-04-24T08:38:27;1.67;;;1.30;;
22160;SDS011;49035;48.812;11.762;2023-04-24T08:40:53;1.65;;;1.00;;
22160;SDS011;49035;48.812;11.762;2023-04-24T08:43:20;1.98;;;1.23;;
22160;SDS011;49035;48.812;11.762;2023-04-24T08:45:49;2.70;;;1.30;;
22160;SDS011;49035;48.812;11.762;2023-04-24T08:48:16;4.95;;;1.85;;
22160;SDS011;49035;48.812;11.762;2023-04-24T08:50:43;2.75;;;1.13;;
22160;SDS011;49035;48.812;11.762;2023-04-24T08:53:09;4.13;;;1.50;;
22160;SDS011;49035;48.812;11.762;2023-04-24T08:55:36;1.50;;;1.30;;
22160;SDS011;49035;48.812;11.762;2023-04-24T08:58:02;1.85;;;1.17;;
22160;SDS011;49035;48.812;11.762;2023-04-24T09:00:29;1.88;;;1.35;;
22160;SDS011;49035;48.812;11.762;2023-04-24T09:02:55;3.75;;;1.15;;
22160;SDS011;49035;48.812;11.762;2023-04-24T09:05:21;2.75;;;1.27;;
22160;SDS011;49035;48.812;11.762;2023-04-24T09:07:49;3.58;;;1.40;;
22160;SDS011;49035;48.812;11.762;2023-04-24T09:10:20;1.73;;;1.45;;
22160;SDS011;49035;48.812;11.762;2023-04-24T09:12:47;2.55;;;1.50;;
22160;SDS011;49035;48.812;11.762;2023-04-24T09:15:12;1.48;;;1.38;;
22160;SDS011;49035;48.812;11.762;2023-04-24T09:17:38;1.33;;;1.10;;
22160;SDS011;49035;48.812;11.762;2023-04-24T09:20:04;1.70;;;1.15;;
22160;SDS011;49035;48.812;11.762;2023-04-24T09:22:30;1.75;;;0.98;;
22160;SDS011;49035;48.812;11.762;2023-04-24T09:25:01;2.53;;;0.80;;
22160;SDS011;49035;48.812;11.762;2023-04-24T09:27:33;2.92;;;1.02;;
22160;SDS011;49035;48.812;11.762;2023-04-24T09:29:59;3.10;;;1.00;;
22160;SDS011;49035;48.812;11.762;2023-04-24T09:32:26;2.80;;;1.27;;
22160;SDS011;49035;48.812;11.762;2023-04-24T09:35:06;3.00;;;1.15;;
22160;SDS011;49035;48.812;11.762;2023-04-24T09:37:43;3.47;;;1.10;;
22160;SDS011;49035;48.812;11.762;2023-04-24T09:40:15;2.80;;;1.10;;
22160;SDS011;49035;48.812;11.762;2023-04-24T09:42:52;1.88;;;1.13;;
22160;SDS011;49035;48.812;11.762;2023-04-24T09:45:18;2.15;;;1.13;;
22160;SDS011;49035;48.812;11.762;2023-04-24T09:47:45;2.00;;;1.20;;
22160;SDS011;49035;48.812;11.762;2023-04-24T09:50:19;1.88;;;1.20;;
22160;SDS011;49035;48.812;11.762;2023-04-24T09:52:58;2.45;;;1.42;;
22160;SDS011;49035;48.812;11.762;2023-04-24T09:55:26;2.50;;;1.35;;
22160;SDS011;49035;48.812;11.762;2023-04-24T09:57:53;2.22;;;1.65;;
22160;SDS011;49035;48.812;11.762;2023-04-24T10:00:25;1.58;;;1.40;;
22160;SDS011;49035;48.812;11.762;2023-04-24T10:02:55;2.00;;;1.30;;
22160;SDS011;49035;48.812;11.762;2023-04-24T10:05:23;2.58;;;1.38;;
22160;SDS011;49035;48.812;11.762;2023-04-24T10:07:56;1.50;;;1.38;;
22160;SDS011;49035;48.812;11.762;2023-04-24T10:10:26;1.50;;;1.27;;
22160;SDS011;49035;48.812;11.762;2023-04-24T10:12:51;1.85;;;1.40;;
22160;SDS011;49035;48.812;11.762;2023-04-24T10:15:18;1.80;;;1.33;;
22160;SDS011;49035;48.812;11.762;2023-04-24T10:17:46;1.70;;;1.45;;
22160;SDS011;49035;48.812;11.762;2023-04-24T10:20:19;1.92;;;1.70;;
22160;SDS011;49035;48.812;11.762;2023-04-24T10:22:50;4.00;;;1.70;;
22160;SDS011;49035;48.812;11.762;2023-04-24T10:25:21;2.78;;;1.67;;
22160;SDS011;49035;48.812;11.762;2023-04-24T10:27:52;3.53;;;1.60;;
22160;SDS011;49035;48.812;11.762;2023-04-24T10:30:18;2.67;;;1.60;;
22160;SDS011;49035;48.812;11.762;2023-04-24T10:32:45;2.30;;;1.77;;
22160;SDS011;49035;48.812;11.762;2023-04-24T10:35:15;1.83;;;1.50;;
22160;SDS011;49035;48.812;11.762;2023-04-24T10:37:46;2.65;;;1.50;;
22160;SDS011;49035;48.812;11.762;2023-04-24T10:40:31;1.55;;;1.27;;
22160;SDS011;49035;48.812;11.762;2023-04-24T10:42:59;2.92;;;1.50;;
22160;SDS011;49035;48.812;11.762;2023-04-24T10:45:37;3.60;;;1.73;;
22160;SDS011;49035;48.812;11.762;2023-04-24T10:48:04;1.75;;;1.23;;
22160;SDS011;49035;48.812;11.762;2023-04-24T10:50:43;2.70;;;1.60;;
22160;SDS011;49035;48.812;11.762;2023-04-24T10:53:17;2.20;;;1.42;;
22160;SDS011;49035;48.812;11.762;2023-04-24T10:55:50;3.60;;;1.70;;
22160;SDS011;49035;48.812;11.762;2023-04-24T10:58:22;1.73;;;1.63;;
22160;SDS011;49035;48.812;11.762;2023-04-24T11:00:55;3.15;;;1.95;;
22160;SDS011;49035;48.812;11.762;2023-04-24T11:03:23;5.82;;;1.40;;
22160;SDS011;49035;48.812;11.762;2023-04-24T11:08:24;1.42;;;0.75;;
22160;SDS011;49035;48.812;11.762;2023-04-24T11:11:08;1.05;;;0.90;;
22160;SDS011;49035;48.812;11.762;2023-04-24T11:16:20;2.45;;;0.80;;
22160;SDS011;49035;48.812;11.762;2023-04-24T11:18:51;1.08;;;1.00;;
22160;SDS011;49035;48.812;11.762;2023-04-24T11:21:24;1.40;;;0.90;;
22160;SDS011;49035;48.812;11.762;2023-04-24T11:23:51;2.53;;;1.25;;
22160;SDS011;49035;48.812;11.762;2023-04-24T11:26:26;1.50;;;1.40;;
22160;SDS011;49035;48.812;11.762;2023-04-24T11:29:05;2.38;;;1.00;;
22160;SDS011;49035;48.812;11.762;2023-04-24T11:31:36;1.00;;;0.90;;
22160;SDS011;49035;48.812;11.762;2023-04-24T11:34:09;1.02;;;0.63;;
22160;SDS011;49035;48.812;11.762;2023-04-24T11:36:37;2.50;;;0.90;;
22160;SDS011;49035;48.812;11.762;2023-04-24T11:39:03;1.08;;;0.98;;
22160;SDS011;49035;48.812;11.762;2023-04-24T11:41:29;0.90;;;0.80;;
22160;SDS011;49035;48.812;11.762;2023-04-24T11:43:55;1.10;;;0.80;;
22160;SDS011;49035;48.812;11.762;2023-04-24T11:46:21;1.38;;;1.27;;
22160;SDS011;49035;48.812;11.762;2023-04-24T11:48:47;1.80;;;0.90;;
22160;SDS011;49035;48.812;11.762;2023-04-24T11:51:13;1.50;;;1.02;;
22160;SDS011;49035;48.812;11.762;2023-04-24T11:53:39;1.52;;;1.42;;
22160;SDS011;49035;48.812;11.762;2023-04-24T11:56:05;1.50;;;1.30;;
22160;SDS011;49035;48.812;11.762;2023-04-24T11:58:40;2.65;;;1.15;;
22160;SDS011;49035;48.812;11.762;2023-04-24T12:01:05;3.47;;;2.03;;
22160;SDS011;49035;48.812;11.762;2023-04-24T12:03:31;2.97;;;1.30;;
22160;SDS011;49035;48.812;11.762;2023-04-24T12:06:06;4.25;;;1.50;;
22160;SDS011;49035;48.812;11.762;2023-04-24T12:08:33;1.60;;;1.38;;
22160;SDS011;49035;48.812;11.762;2023-04-24T12:11:03;3.60;;;1.48;;
22160;SDS011;49035;48.812;11.762;2023-04-24T12:13:32;1.65;;;1.30;;
22160;SDS011;49035;48.812;11.762;2023-04-24T12:15:58;2.83;;;1.58;;
22160;SDS011;49035;48.812;11.762;2023-04-24T12:18:24;1.80;;;1.27;;
22160;SDS011;49035;48.812;11.762;2023-04-24T12:20:50;1.35;;;1.17;;
22160;SDS011;49035;48.812;11.762;2023-04-24T12:23:16;2.72;;;1.48;;
22160;SDS011;49035;48.812;11.762;2023-04-24T12:25:59;1.58;;;1.40;;
22160;SDS011;49035;48.812;11.762;2023-04-24T12:28:33;1.70;;;1.33;;
22160;SDS011;49035;48.812;11.762;2023-04-24T12:31:01;2.03;;;1.25;;
22160;SDS011;49035;48.812;11.762;2023-04-24T12:33:26;3.30;;;1.20;;
22160;SDS011;49035;48.812;11.762;2023-04-24T12:35:52;4.10;;;1.45;;
22160;SDS011;49035;48.812;11.762;2023-04-24T12:38:22;2.25;;;1.17;;
22160;SDS011;49035;48.812;11.762;2023-04-24T12:41:00;1.48;;;1.38;;
22160;SDS011;49035;48.812;11.762;2023-04-24T12:43:28;1.95;;;1.10;;
22160;SDS011;49035;48.812;11.762;2023-04-24T12:45:53;2.50;;;1.45;;
22160;SDS011;49035;48.812;11.762;2023-04-24T12:48:19;1.77;;;1.10;;
22160;SDS011;49035;48.812;11.762;2023-04-24T12:50:45;2.13;;;1.05;;
22160;SDS011;49035;48.812;11.762;2023-04-24T12:53:11;1.67;;;1.15;;
22160;SDS011;49035;48.812;11.762;2023-04-24T12:55:37;3.00;;;1.23;;
22160;SDS011;49035;48.812;11.762;2023-04-24T12:58:02;1.20;;;1.10;;
22160;SDS011;49035;48.812;11.762;2023-04-24T13:00:28;1.90;;;1.10;;
22160;SDS011;49035;48.812;11.762;2023-04-24T13:02:54;1.55;;;1.00;;
22160;SDS011;49035;48.812;11.762;2023-04-24T13:05:19;1.27;;;1.02;;
22160;SDS011;49035;48.812;11.762;2023-04-24T13:07:45;1.58;;;1.05;;
22160;SDS011;49035;48.812;11.762;2023-04-24T13:10:11;2.55;;;1.65;;
22160;SDS011;49035;48.812;11.762;2023-04-24T13:12:38;1.88;;;1.00;;
22160;SDS011;49035;48.812;11.762;2023-04-24T13:15:04;1.70;;;1.10;;
22160;SDS011;49035;48.812;11.762;2023-04-24T13:17:30;2.47;;;1.15;;
22160;SDS011;49035;48.812;11.762;2023-04-24T13:19:56;3.78;;;1.10;;
22160;SDS011;49035;48.812;11.762;2023-04-24T13:22:21;3.40;;;1.00;;
22160;SDS011;49035;48.812;11.762;2023-04-24T13:24:47;1.30;;;1.00;;
22160;SDS011;49035;48.812;11.762;2023-04-24T13:27:16;1.30;;;1.20;;
22160;SDS011;49035;48.812;11.762;2023-04-24T13:29:41;1.00;;;0.95;;
22160;SDS011;49035;48.812;11.762;2023-04-24T13:32:07;1.50;;;1.23;;
22160;SDS011;49035;48.812;11.762;2023-04-24T13:34:33;1.42;;;1.15;;
22160;SDS011;49035;48.812;11.762;2023-04-24T13:37:00;0.90;;;0.90;;
22160;SDS011;49035;48.812;11.762;2023-04-24T13:39:26;0.90;;;0.90;;
22160;SDS011;49035;48.812;11.762;2023-04-24T13:41:52;1.80;;;1.00;;
22160;SDS011;49035;48.812;11.762;2023-04-24T13:44:18;1.88;;;0.80;;
22160;SDS011;49035;48.812;11.762;2023-04-24T13:46:46;0.77;;;0.77;;
22160;SDS011;49035;48.812;11.762;2023-04-24T13:49:13;3.33;;;1.08;;
22160;SDS011;49035;48.812;11.762;2023-04-24T13:51:40;4.18;;;1.30;;
22160;SDS011;49035;48.812;11.762;2023-04-24T13:54:06;0.90;;;0.90;;
22160;SDS011;49035;48.812;11.762;2023-04-24T13:56:32;1.40;;;1.17;;
22160;SDS011;49035;48.812;11.762;2023-04-24T13:58:57;2.47;;;1.10;;
22160;SDS011;49035;48.812;11.762;2023-04-24T14:01:23;1.65;;;0.82;;
22160;SDS011;49035;48.812;11.762;2023-04-24T14:03:51;2.13;;;1.10;;
22160;SDS011;49035;48.812;11.762;2023-04-24T14:06:18;1.88;;;1.13;;
22160;SDS011;49035;48.812;11.762;2023-04-24T14:08:44;1.15;;;1.05;;
22160;SDS011;49035;48.812;11.762;2023-04-24T14:11:10;1.42;;;1.00;;
22160;SDS011;49035;48.812;11.762;2023-04-24T14:13:36;1.52;;;0.95;;
22160;SDS011;49035;48.812;11.762;2023-04-24T14:16:02;2.17;;;0.98;;
22160;SDS011;49035;48.812;11.762;2023-04-24T14:18:28;3.05;;;0.80;;
22160;SDS011;49035;48.812;11.762;2023-04-24T14:20:54;0.80;;;0.80;;
22160;SDS011;49035;48.812;11.762;2023-04-24T14:23:20;1.15;;;1.02;;
22160;SDS011;49035;48.812;11.762;2023-04-24T14:25:46;1.30;;;1.10;;
22160;SDS011;49035;48.812;11.762;2023-04-24T14:28:15;3.90;;;1.17;;
22160;SDS011;49035;48.812;11.762;2023-04-24T14:30:41;0.85;;;0.85;;
22160;SDS011;49035;48.812;11.762;2023-04-24T14:33:07;2.65;;;1.20;;
22160;SDS011;49035;48.812;11.762;2023-04-24T14:35:33;2.58;;;1.33;;
22160;SDS011;49035;48.812;11.762;2023-04-24T14:38:00;1.20;;;1.00;;